Time;durP1;ratioP1;P1;durP2;ratioP2;P2;SDS_P1;SDS_P2;PMS_P1;PMS_P2;Temp;Humidity;BMP_temperature;BMP_pressure;BME280_temperature;BME280_humidity;BME280_pressure;Samples;Min_cycle;Max_cycle;Signal;HPM_P1;HPM_P2
2020/12/28 00:00:09;;;;;;;0.10;0.10;;;5.90;99.90;;;;;;5073075;28;20703;-82
2020/12/28 00:02:36;;;;;;;0.10;0.10;;;5.90;99.90;;;;;;5097960;28;20301;-82
2020/12/28 00:05:06;;;;;;;0.23;0.23;;;6.00;99.90;;;;;;5100151;28;20187;-81
2020/12/28 00:07:33;;;;;;;1.03;0.33;;;6.00;99.90;;;;;;5090290;28;20213;-82
2020/12/28 00:09:58;;;;;;;0.27;0.27;;;6.00;99.90;;;;;;5094155;28;20183;-82
2020/12/28 00:12:27;;;;;;;0.10;0.10;;;6.00;99.90;;;;;;5091844;28;20237;-81
2020/12/28 00:14:53;;;;;;;0.10;0.10;;;6.00;99.90;;;;;;5087497;28;20222;-82
2020/12/28 00:17:18;;;;;;;0.10;0.10;;;6.00;99.90;;;;;;5090005;28;20766;-81
2020/12/28 00:19:44;;;;;;;0.20;0.20;;;6.00;99.90;;;;;;5082863;28;20185;-82
2020/12/28 00:22:09;;;;;;;0.10;0.10;;;6.00;99.90;;;;;;5085589;28;20209;-81
2020/12/28 00:24:35;;;;;;;0.10;0.10;;;6.00;99.90;;;;;;5091145;28;20225;-81
2020/12/28 00:27:01;;;;;;;0.10;0.10;;;6.00;99.90;;;;;;5092883;28;20195;-80
2020/12/28 00:29:26;;;;;;;0.10;0.10;;;6.00;99.90;;;;;;5074804;28;20199;-81
2020/12/28 00:31:52;;;;;;;0.20;0.20;;;6.00;99.90;;;;;;5086597;28;20214;-82
2020/12/28 00:34:18;;;;;;;0.00;0.00;;;6.00;99.90;;;;;;5086068;28;20189;-82
2020/12/28 00:36:43;;;;;;;0.10;0.10;;;6.00;99.90;;;;;;5083672;28;20620;-82
2020/12/28 00:39:09;;;;;;;0.10;0.10;;;6.00;99.90;;;;;;5088171;28;20267;-80
2020/12/28 00:41:34;;;;;;;0.10;0.10;;;6.00;99.90;;;;;;5097860;28;20211;-82
2020/12/28 00:44:00;;;;;;;0.00;0.00;;;6.00;99.90;;;;;;5083589;28;20184;-82
2020/12/28 00:46:25;;;;;;;0.10;0.10;;;6.00;99.90;;;;;;5086472;28;20173;-80
2020/12/28 00:48:51;;;;;;;0.10;0.10;;;6.00;99.90;;;;;;5090300;28;20229;-80
2020/12/28 00:51:17;;;;;;;0.30;0.30;;;6.00;99.90;;;;;;5091595;28;20326;-82
2020/12/28 00:53:42;;;;;;;0.30;0.30;;;6.00;99.90;;;;;;5091823;28;20185;-82
2020/12/28 00:56:08;;;;;;;0.10;0.10;;;6.00;99.90;;;;;;5088296;28;20179;-82
2020/12/28 00:58:35;;;;;;;0.10;0.10;;;5.90;99.90;;;;;;5088874;28;20247;-81
2020/12/28 01:01:01;;;;;;;0.10;0.10;;;6.00;99.90;;;;;;5089603;28;20216;-82
2020/12/28 01:03:27;;;;;;;0.90;0.90;;;5.90;99.90;;;;;;5084142;28;20190;-82
2020/12/28 01:05:52;;;;;;;0.20;0.20;;;6.00;99.90;;;;;;5091792;28;20231;-81
2020/12/28 01:08:18;;;;;;;0.10;0.10;;;6.00;99.90;;;;;;5080137;28;20659;-82
2020/12/28 01:10:43;;;;;;;0.10;0.10;;;5.90;99.90;;;;;;5090700;28;20195;-80
2020/12/28 01:13:09;;;;;;;0.00;0.00;;;5.90;99.90;;;;;;5095537;28;20188;-81
2020/12/28 01:15:35;;;;;;;0.10;0.10;;;5.80;99.90;;;;;;5102869;28;20188;-82
2020/12/28 01:18:00;;;;;;;0.30;0.30;;;5.80;99.90;;;;;;5093255;28;20216;-82
2020/12/28 01:20:26;;;;;;;0.10;0.10;;;5.80;99.90;;;;;;5089399;28;20188;-81
2020/12/28 01:22:52;;;;;;;1.10;0.20;;;5.80;99.90;;;;;;5096702;28;20208;-80
2020/12/28 01:25:17;;;;;;;0.20;0.20;;;5.80;99.90;;;;;;5083197;28;20179;-84
2020/12/28 01:27:43;;;;;;;0.10;0.10;;;5.80;99.90;;;;;;5093994;28;20198;-84
2020/12/28 01:30:08;;;;;;;0.10;0.10;;;5.80;99.90;;;;;;5090389;28;20181;-82
2020/12/28 01:32:34;;;;;;;0.53;0.53;;;5.80;99.90;;;;;;5099868;28;20230;-79
2020/12/28 01:34:59;;;;;;;0.20;0.20;;;5.80;99.90;;;;;;5087567;28;20652;-81
2020/12/28 01:37:25;;;;;;;0.03;0.03;;;5.70;99.90;;;;;;5088935;28;20210;-82
2020/12/28 01:39:51;;;;;;;0.10;0.10;;;5.70;99.90;;;;;;5078869;28;20236;-82
2020/12/28 01:42:16;;;;;;;0.00;0.00;;;5.70;99.90;;;;;;5106606;28;20218;-82
2020/12/28 01:44:42;;;;;;;0.43;0.17;;;5.70;99.90;;;;;;5088698;28;20237;-82
2020/12/28 01:47:08;;;;;;;0.10;0.10;;;5.70;99.90;;;;;;5088873;28;20233;-82
2020/12/28 01:49:34;;;;;;;0.10;0.10;;;5.70;99.90;;;;;;5081005;28;20332;-82
2020/12/28 01:52:00;;;;;;;0.10;0.10;;;5.80;99.90;;;;;;5091982;28;20208;-81
2020/12/28 01:54:27;;;;;;;0.20;0.20;;;5.70;99.90;;;;;;5091724;28;20659;-80
2020/12/28 01:56:55;;;;;;;0.03;0.03;;;5.70;99.90;;;;;;5096544;28;20211;-82
2020/12/28 01:59:22;;;;;;;0.07;0.07;;;5.80;99.90;;;;;;5092885;28;20186;-81
2020/12/28 02:01:53;;;;;;;0.00;0.00;;;5.80;99.90;;;;;;5093866;28;20642;-82
2020/12/28 02:04:34;;;;;;;0.10;0.10;;;5.80;99.90;;;;;;5079558;28;20184;-82
2020/12/28 02:07:01;;;;;;;0.17;0.17;;;5.80;99.90;;;;;;5093104;28;20204;-82
2020/12/28 02:09:27;;;;;;;0.10;0.10;;;5.80;99.90;;;;;;5093933;28;20207;-79
2020/12/28 02:11:54;;;;;;;0.10;0.10;;;5.80;99.90;;;;;;5098015;28;20212;-81
2020/12/28 02:14:20;;;;;;;0.10;0.10;;;5.80;99.90;;;;;;5092309;28;20191;-81
2020/12/28 02:16:45;;;;;;;0.10;0.10;;;5.80;99.90;;;;;;5092845;28;20585;-82
2020/12/28 02:19:11;;;;;;;0.20;0.20;;;5.80;99.90;;;;;;5092550;28;20184;-80
2020/12/28 02:21:37;;;;;;;0.07;0.07;;;5.80;99.90;;;;;;5088212;28;20211;-81
2020/12/28 02:24:03;;;;;;;0.10;0.10;;;5.80;99.90;;;;;;5098061;28;20222;-81
2020/12/28 02:26:29;;;;;;;0.10;0.10;;;5.80;99.90;;;;;;5093571;28;20179;-80
2020/12/28 02:28:54;;;;;;;0.00;0.00;;;5.80;99.90;;;;;;5095171;28;20193;-81
2020/12/28 02:31:20;;;;;;;0.00;0.00;;;5.80;99.90;;;;;;5085257;28;20292;-82
2020/12/28 02:33:45;;;;;;;0.10;0.10;;;5.80;99.90;;;;;;5092877;28;20176;-81
2020/12/28 02:36:11;;;;;;;0.10;0.10;;;5.80;99.90;;;;;;5093594;28;20192;-82
2020/12/28 02:38:37;;;;;;;0.10;0.10;;;5.80;99.90;;;;;;5080699;28;20228;-82
2020/12/28 02:41:04;;;;;;;0.00;0.00;;;5.80;99.90;;;;;;5083085;28;20212;-81
2020/12/28 02:43:30;;;;;;;0.10;0.10;;;5.80;99.90;;;;;;5082206;28;20654;-82
2020/12/28 02:45:57;;;;;;;0.10;0.10;;;5.80;99.90;;;;;;5084499;28;20195;-82
2020/12/28 02:48:23;;;;;;;0.00;0.00;;;5.80;99.90;;;;;;5083391;28;20192;-81
2020/12/28 02:50:49;;;;;;;0.10;0.10;;;5.90;99.90;;;;;;5084476;28;20229;-82
2020/12/28 02:53:14;;;;;;;0.10;0.10;;;5.90;99.90;;;;;;5093653;28;20249;-82
2020/12/28 02:55:40;;;;;;;0.00;0.00;;;5.90;99.90;;;;;;5083918;28;20192;-82
2020/12/28 02:58:05;;;;;;;0.63;0.30;;;5.80;99.90;;;;;;5079960;28;20216;-82
2020/12/28 03:00:31;;;;;;;0.10;0.10;;;5.90;99.90;;;;;;5083890;28;20183;-81
2020/12/28 03:02:56;;;;;;;0.00;0.00;;;5.80;99.90;;;;;;5080862;28;20198;-82
2020/12/28 03:05:22;;;;;;;0.10;0.10;;;5.80;99.90;;;;;;5073908;28;20200;-82
2020/12/28 03:07:47;;;;;;;0.10;0.10;;;5.90;99.90;;;;;;5086831;28;20192;-82
2020/12/28 03:10:13;;;;;;;0.10;0.10;;;5.90;99.90;;;;;;5089214;28;20197;-82
2020/12/28 03:12:38;;;;;;;0.00;0.00;;;5.90;99.90;;;;;;5071558;28;20214;-82
2020/12/28 03:15:04;;;;;;;0.10;0.10;;;5.90;99.90;;;;;;5074819;28;20188;-82
2020/12/28 03:17:29;;;;;;;0.10;0.10;;;5.90;99.90;;;;;;5083275;28;20671;-81
2020/12/28 03:19:55;;;;;;;0.20;0.20;;;5.90;99.90;;;;;;5082622;28;20793;-82
2020/12/28 03:22:20;;;;;;;0.23;0.23;;;5.90;99.90;;;;;;5080843;28;20203;-83
2020/12/28 03:24:46;;;;;;;0.30;0.30;;;6.00;99.90;;;;;;5078879;28;20172;-83
2020/12/28 03:27:12;;;;;;;0.03;0.03;;;6.00;99.90;;;;;;5080279;28;20231;-83
2020/12/28 03:29:37;;;;;;;0.20;0.20;;;5.90;99.90;;;;;;5087357;28;20207;-82
2020/12/28 03:32:03;;;;;;;0.10;0.10;;;5.90;99.90;;;;;;5083068;28;20208;-82
2020/12/28 03:34:29;;;;;;;0.10;0.10;;;5.90;99.90;;;;;;5085243;28;20255;-82
2020/12/28 03:36:54;;;;;;;0.10;0.10;;;5.80;99.90;;;;;;5084707;28;20299;-81
2020/12/28 03:39:20;;;;;;;0.10;0.10;;;5.80;99.90;;;;;;5078129;28;20188;-81
2020/12/28 03:41:46;;;;;;;0.10;0.10;;;5.90;99.90;;;;;;5077816;28;20219;-82
2020/12/28 03:44:11;;;;;;;0.10;0.10;;;5.90;99.90;;;;;;5077975;28;20242;-81
2020/12/28 03:46:37;;;;;;;0.10;0.10;;;5.80;99.90;;;;;;5088279;28;20245;-82
2020/12/28 03:49:03;;;;;;;0.10;0.10;;;5.90;99.90;;;;;;5088868;28;20287;-83
2020/12/28 03:51:28;;;;;;;0.10;0.10;;;5.90;99.90;;;;;;5082359;28;20564;-81
2020/12/28 03:53:54;;;;;;;0.30;0.30;;;6.00;99.90;;;;;;5083548;28;20203;-80
2020/12/28 03:56:20;;;;;;;0.10;0.10;;;6.00;99.90;;;;;;5083294;28;20685;-80
2020/12/28 03:58:46;;;;;;;0.10;0.10;;;6.00;99.90;;;;;;5084281;28;20237;-81
2020/12/28 04:01:11;;;;;;;0.00;0.00;;;6.00;99.90;;;;;;5088969;28;20218;-79
2020/12/28 04:03:37;;;;;;;0.10;0.10;;;5.90;99.90;;;;;;5082953;28;20652;-81
2020/12/28 04:06:04;;;;;;;0.00;0.00;;;5.90;99.90;;;;;;5088564;28;20211;-81
2020/12/28 04:08:32;;;;;;;0.00;0.00;;;5.90;99.90;;;;;;5089370;28;20279;-80
2020/12/28 04:10:58;;;;;;;0.00;0.00;;;5.90;99.90;;;;;;5089981;28;20218;-81
2020/12/28 04:13:23;;;;;;;0.00;0.00;;;6.00;99.90;;;;;;5086720;28;20184;-78
2020/12/28 04:15:50;;;;;;;0.10;0.10;;;6.00;99.90;;;;;;5081104;28;20216;-81
2020/12/28 04:18:16;;;;;;;0.10;0.10;;;6.00;99.90;;;;;;5091079;28;20203;-80
2020/12/28 04:20:41;;;;;;;0.00;0.00;;;6.00;99.90;;;;;;5088494;28;20244;-80
2020/12/28 04:23:07;;;;;;;0.10;0.10;;;6.10;99.90;;;;;;5083305;28;20213;-81
2020/12/28 04:25:33;;;;;;;0.10;0.10;;;6.00;99.90;;;;;;5082503;28;20275;-81
2020/12/28 04:27:58;;;;;;;0.10;0.10;;;6.10;99.90;;;;;;5092801;28;20195;-81
2020/12/28 04:30:24;;;;;;;0.00;0.00;;;6.00;99.90;;;;;;5086774;28;20192;-81
2020/12/28 04:32:50;;;;;;;0.10;0.10;;;6.00;99.90;;;;;;5096405;28;20692;-80
2020/12/28 04:35:15;;;;;;;0.10;0.10;;;6.00;99.90;;;;;;5097506;28;20639;-81
2020/12/28 04:37:41;;;;;;;0.10;0.10;;;6.00;99.90;;;;;;5089954;28;20285;-81
2020/12/28 04:40:07;;;;;;;0.00;0.00;;;6.00;99.90;;;;;;5094192;28;20199;-81
2020/12/28 04:42:33;;;;;;;0.10;0.10;;;6.00;99.90;;;;;;5090016;28;20675;-81
2020/12/28 04:44:58;;;;;;;0.10;0.10;;;6.10;99.90;;;;;;5096072;28;20191;-81
2020/12/28 04:47:24;;;;;;;0.00;0.00;;;6.10;99.90;;;;;;5095484;28;20187;-80
2020/12/28 04:49:51;;;;;;;0.00;0.00;;;6.10;99.90;;;;;;5085116;28;20246;-81
2020/12/28 04:52:17;;;;;;;0.30;0.30;;;6.00;99.90;;;;;;5087501;28;20200;-81
2020/12/28 04:54:47;;;;;;;0.10;0.10;;;6.00;99.90;;;;;;5090483;28;20542;-80
2020/12/28 04:57:13;;;;;;;0.10;0.10;;;6.00;99.90;;;;;;5087461;28;20250;-81
2020/12/28 04:59:39;;;;;;;0.10;0.10;;;6.10;99.90;;;;;;5092384;28;20623;-80
2020/12/28 05:02:06;;;;;;;0.10;0.10;;;6.10;99.90;;;;;;5090777;28;20242;-79
2020/12/28 05:04:32;;;;;;;0.00;0.00;;;6.10;99.90;;;;;;5100750;28;21632;-81
2020/12/28 05:07:05;;;;;;;0.10;0.10;;;6.20;99.90;;;;;;5093503;28;20199;-81
2020/12/28 05:09:32;;;;;;;0.10;0.10;;;6.10;99.90;;;;;;5092382;28;20192;-80
2020/12/28 05:12:01;;;;;;;0.10;0.10;;;6.20;99.90;;;;;;5087723;28;20227;-81
2020/12/28 05:14:27;;;;;;;0.10;0.10;;;6.20;99.90;;;;;;5085732;28;20200;-80
2020/12/28 05:17:00;;;;;;;0.10;0.10;;;6.20;99.90;;;;;;5091852;28;20208;-79
2020/12/28 05:19:27;;;;;;;0.10;0.10;;;6.20;99.90;;;;;;5088772;28;20744;-81
2020/12/28 05:21:54;;;;;;;0.40;0.30;;;6.20;99.90;;;;;;5093780;28;20207;-81
2020/12/28 05:24:20;;;;;;;0.10;0.10;;;6.10;99.90;;;;;;5093405;28;20181;-81
2020/12/28 05:26:47;;;;;;;0.10;0.10;;;6.10;99.90;;;;;;5087951;28;20198;-81
2020/12/28 05:29:22;;;;;;;0.10;0.10;;;6.10;99.90;;;;;;5091927;28;20199;-80
2020/12/28 05:31:50;;;;;;;0.10;0.10;;;6.10;99.90;;;;;;5084715;28;20239;-81
2020/12/28 05:34:19;;;;;;;0.00;0.00;;;6.10;99.90;;;;;;5091981;28;20560;-80
2020/12/28 05:36:51;;;;;;;0.10;0.10;;;6.10;99.90;;;;;;5086423;28;20204;-79
2020/12/28 05:39:19;;;;;;;0.10;0.10;;;6.10;99.90;;;;;;5106972;28;20188;-79
2020/12/28 05:41:52;;;;;;;0.10;0.10;;;5.90;99.90;;;;;;5085200;28;20212;-81
2020/12/28 05:44:18;;;;;;;0.03;0.03;;;6.00;99.90;;;;;;5079396;28;20260;-80
2020/12/28 05:46:56;;;;;;;0.00;0.00;;;6.00;99.90;;;;;;5091822;28;20192;-84
2020/12/28 05:49:22;;;;;;;0.10;0.10;;;6.10;99.90;;;;;;5093490;28;20668;-84
2020/12/28 05:51:49;;;;;;;0.10;0.10;;;6.10;99.90;;;;;;5092142;28;20208;-84
2020/12/28 05:54:17;;;;;;;0.10;0.10;;;6.10;99.90;;;;;;5102401;28;20191;-81
2020/12/28 05:56:43;;;;;;;0.10;0.10;;;6.10;99.90;;;;;;5091648;28;20668;-80
2020/12/28 05:59:11;;;;;;;0.10;0.10;;;6.20;99.90;;;;;;5096762;28;20208;-82
2020/12/28 06:01:43;;;;;;;0.10;0.10;;;6.10;99.90;;;;;;5088715;28;20208;-81
2020/12/28 06:04:13;;;;;;;0.10;0.10;;;6.10;99.90;;;;;;5091777;28;20196;-82
2020/12/28 06:06:39;;;;;;;0.10;0.10;;;6.10;99.90;;;;;;5093291;28;20188;-82
2020/12/28 06:09:05;;;;;;;0.10;0.10;;;5.90;99.90;;;;;;5095083;28;20237;-81
2020/12/28 06:11:31;;;;;;;0.10;0.10;;;5.80;99.90;;;;;;5092666;28;20203;-82
2020/12/28 06:13:56;;;;;;;0.10;0.10;;;5.80;99.90;;;;;;5087553;28;20219;-82
2020/12/28 06:16:23;;;;;;;0.10;0.10;;;5.90;99.90;;;;;;5087837;28;20180;-81
2020/12/28 06:18:56;;;;;;;0.10;0.10;;;5.90;99.90;;;;;;5089025;28;20183;-80
2020/12/28 06:21:22;;;;;;;0.10;0.10;;;5.90;99.90;;;;;;5095044;28;20231;-80
2020/12/28 06:23:49;;;;;;;0.10;0.10;;;6.00;99.90;;;;;;5089228;28;20196;-81
2020/12/28 06:26:19;;;;;;;0.00;0.00;;;5.90;99.90;;;;;;5090481;28;20184;-82
2020/12/28 06:28:46;;;;;;;0.10;0.10;;;5.70;99.90;;;;;;5086457;28;20199;-83
2020/12/28 06:31:11;;;;;;;0.00;0.00;;;5.80;99.90;;;;;;5090378;28;20718;-82
2020/12/28 06:33:48;;;;;;;0.10;0.10;;;5.80;99.90;;;;;;5086650;28;20204;-82
2020/12/28 06:36:17;;;;;;;0.10;0.10;;;5.90;99.90;;;;;;5088106;28;20241;-80
2020/12/28 06:38:54;;;;;;;0.30;0.10;;;5.90;99.90;;;;;;5089906;28;20216;-82
2020/12/28 06:41:30;;;;;;;0.10;0.10;;;6.00;99.90;;;;;;5087712;28;20226;-80
2020/12/28 06:44:01;;;;;;;0.07;0.07;;;6.00;99.90;;;;;;5090056;28;20192;-82
2020/12/28 06:46:28;;;;;;;0.00;0.00;;;6.10;99.90;;;;;;5083589;28;20526;-82
2020/12/28 06:48:55;;;;;;;0.10;0.10;;;6.00;99.90;;;;;;5089542;28;20238;-82
2020/12/28 06:51:24;;;;;;;0.10;0.10;;;6.10;99.90;;;;;;5087809;28;20199;-81
2020/12/28 06:53:56;;;;;;;0.10;0.10;;;6.10;99.90;;;;;;5088847;28;20195;-83
2020/12/28 06:56:26;;;;;;;0.10;0.10;;;6.10;99.90;;;;;;5088479;28;20173;-84
2020/12/28 06:58:59;;;;;;;0.10;0.10;;;6.00;99.90;;;;;;5089674;28;20809;-82
2020/12/28 07:01:25;;;;;;;0.00;0.00;;;5.80;99.90;;;;;;5100719;28;20623;-82
2020/12/28 07:03:53;;;;;;;0.20;0.20;;;5.80;99.90;;;;;;5090930;28;20177;-82
2020/12/28 07:06:19;;;;;;;0.10;0.10;;;5.80;99.90;;;;;;5087746;28;20559;-82
2020/12/28 07:08:45;;;;;;;0.87;0.47;;;5.70;99.90;;;;;;5070234;28;20625;-80
2020/12/28 07:11:11;;;;;;;0.10;0.10;;;5.80;99.90;;;;;;5081278;28;20211;-82
2020/12/28 07:13:42;;;;;;;0.20;0.20;;;5.80;99.90;;;;;;5075977;27;20536;-83
2020/12/28 07:16:08;;;;;;;0.10;0.10;;;5.60;99.90;;;;;;5068263;28;20273;-83
2020/12/28 07:18:35;;;;;;;0.10;0.10;;;5.40;99.90;;;;;;5061671;28;20568;-83
2020/12/28 07:21:01;;;;;;;0.00;0.00;;;5.20;99.90;;;;;;5073384;28;20589;-82
2020/12/28 07:23:28;;;;;;;0.07;0.07;;;5.10;99.90;;;;;;5054477;28;20571;-83
2020/12/28 07:26:07;;;;;;;0.10;0.10;;;5.00;99.90;;;;;;5058784;28;20196;-83
2020/12/28 07:28:34;;;;;;;0.10;0.10;;;5.00;99.90;;;;;;5064123;28;20250;-83
2020/12/28 07:31:02;;;;;;;0.10;0.10;;;4.90;99.90;;;;;;5072192;28;20215;-80
2020/12/28 07:33:28;;;;;;;0.00;0.00;;;5.00;99.90;;;;;;5059349;28;20587;-83
2020/12/28 07:36:06;;;;;;;0.10;0.10;;;5.10;99.90;;;;;;5079897;28;20211;-82
2020/12/28 07:38:32;;;;;;;0.10;0.10;;;5.10;99.90;;;;;;5052082;28;20283;-82
2020/12/28 07:40:58;;;;;;;0.10;0.10;;;5.30;99.90;;;;;;5054291;28;20212;-83
2020/12/28 07:43:23;;;;;;;0.10;0.10;;;5.50;99.90;;;;;;5066171;28;20202;-83
2020/12/28 07:45:50;;;;;;;0.30;0.30;;;5.60;99.90;;;;;;5053770;28;20274;-82
2020/12/28 07:48:19;;;;;;;0.10;0.10;;;5.70;99.90;;;;;;5060420;28;20196;-83
2020/12/28 07:50:51;;;;;;;0.00;0.00;;;5.80;99.90;;;;;;5056270;28;20272;-80
2020/12/28 07:53:19;;;;;;;0.00;0.00;;;5.90;99.90;;;;;;5055187;28;20220;-82
2020/12/28 07:56:03;;;;;;;0.10;0.10;;;6.00;99.90;;;;;;5058851;28;20182;-82
2020/12/28 07:58:49;;;;;;;0.10;0.10;;;6.00;99.90;;;;;;5061011;28;20275;-81
2020/12/28 08:01:31;;;;;;;0.10;0.10;;;6.10;99.90;;;;;;5053163;28;20208;-83
2020/12/28 08:04:01;;;;;;;0.07;0.07;;;6.10;99.90;;;;;;5055805;28;20186;-83
2020/12/28 08:06:27;;;;;;;0.10;0.10;;;6.10;99.90;;;;;;5063133;28;20214;-82
2020/12/28 08:09:00;;;;;;;0.10;0.10;;;6.10;99.90;;;;;;5059699;28;20712;-82
2020/12/28 08:11:29;;;;;;;0.00;0.00;;;6.20;99.90;;;;;;5060151;28;20211;-81
2020/12/28 08:13:55;;;;;;;0.10;0.10;;;6.10;99.90;;;;;;5056552;28;20201;-82
2020/12/28 08:16:21;;;;;;;0.10;0.10;;;6.20;99.90;;;;;;5059766;28;20197;-81
2020/12/28 08:18:55;;;;;;;0.10;0.10;;;6.20;99.90;;;;;;5055230;28;20581;-84
2020/12/28 08:21:24;;;;;;;0.10;0.10;;;6.20;99.90;;;;;;5072331;28;20719;-83
2020/12/28 08:23:57;;;;;;;0.10;0.10;;;6.20;99.90;;;;;;5064046;28;20177;-85
2020/12/28 08:26:25;;;;;;;0.10;0.10;;;6.20;99.90;;;;;;5040056;28;20188;-82
2020/12/28 08:28:52;;;;;;;0.00;0.00;;;6.30;99.90;;;;;;5041919;28;20627;-82
2020/12/28 08:31:44;;;;;;;0.00;0.00;;;6.40;99.90;;;;;;5048657;28;20295;-80
2020/12/28 08:34:11;;;;;;;0.10;0.10;;;6.40;99.90;;;;;;5049448;28;20200;-82
2020/12/28 08:36:39;;;;;;;0.10;0.10;;;6.40;99.90;;;;;;5069393;28;20187;-81
2020/12/28 08:39:16;;;;;;;0.10;0.10;;;6.40;99.90;;;;;;5061922;28;20222;-82
2020/12/28 08:41:50;;;;;;;1.50;0.20;;;6.40;99.90;;;;;;5051930;28;20211;-82
2020/12/28 08:44:28;;;;;;;0.30;0.30;;;6.20;99.90;;;;;;5050647;28;20189;-83
2020/12/28 08:46:55;;;;;;;0.00;0.00;;;6.30;99.90;;;;;;5057402;28;20188;-80
2020/12/28 08:49:28;;;;;;;0.10;0.10;;;6.30;99.90;;;;;;5048712;28;20219;-82
2020/12/28 08:51:54;;;;;;;0.10;0.10;;;6.20;99.90;;;;;;5052016;28;20221;-82
2020/12/28 08:54:27;;;;;;;0.10;0.10;;;6.30;99.90;;;;;;5052664;28;20185;-82
2020/12/28 08:56:53;;;;;;;0.10;0.10;;;6.30;99.90;;;;;;5052840;28;20193;-84
2020/12/28 08:59:19;;;;;;;0.10;0.10;;;6.20;99.90;;;;;;5045072;28;20717;-83
2020/12/28 09:01:45;;;;;;;0.70;0.47;;;6.30;99.90;;;;;;5045656;28;20315;-82
2020/12/28 09:04:12;;;;;;;0.10;0.10;;;6.30;99.90;;;;;;5039106;28;20216;-82
2020/12/28 09:06:40;;;;;;;0.00;0.00;;;6.40;99.90;;;;;;5052547;28;20247;-82
2020/12/28 09:09:06;;;;;;;0.10;0.10;;;6.40;99.90;;;;;;5046288;28;20220;-82
2020/12/28 09:11:32;;;;;;;0.30;0.23;;;6.50;99.90;;;;;;5066949;28;20217;-82
2020/12/28 09:13:58;;;;;;;0.00;0.00;;;6.60;99.90;;;;;;5069330;28;20196;-81
2020/12/28 09:16:24;;;;;;;0.40;0.40;;;6.80;99.90;;;;;;5050691;28;20178;-83
2020/12/28 09:18:49;;;;;;;0.00;0.00;;;6.90;99.90;;;;;;5041519;28;20600;-81
2020/12/28 09:21:15;;;;;;;0.00;0.00;;;6.90;99.90;;;;;;5051437;28;20229;-82
2020/12/28 09:23:41;;;;;;;0.10;0.10;;;6.90;99.90;;;;;;5051287;28;20568;-81
2020/12/28 09:26:06;;;;;;;0.17;0.10;;;7.00;99.90;;;;;;5044426;28;20193;-82
2020/12/28 09:28:32;;;;;;;0.10;0.10;;;6.90;99.90;;;;;;5051271;28;20204;-82
2020/12/28 09:30:58;;;;;;;0.00;0.00;;;6.50;99.90;;;;;;5052351;28;20210;-82
2020/12/28 09:33:23;;;;;;;0.10;0.10;;;6.50;99.90;;;;;;5050043;28;20225;-82
2020/12/28 09:35:49;;;;;;;0.10;0.10;;;6.60;99.90;;;;;;5061408;28;20242;-82
2020/12/28 09:38:14;;;;;;;0.10;0.10;;;6.60;99.90;;;;;;5069050;28;20190;-82
2020/12/28 09:40:40;;;;;;;0.10;0.10;;;6.70;99.90;;;;;;5050157;28;20178;-81
2020/12/28 09:43:06;;;;;;;1.30;0.50;;;6.90;99.90;;;;;;5050849;28;20185;-81
2020/12/28 09:45:37;;;;;;;0.10;0.10;;;7.10;99.90;;;;;;5052420;28;20192;-82
2020/12/28 09:48:07;;;;;;;0.20;0.20;;;7.20;99.90;;;;;;5052810;28;20307;-82
2020/12/28 09:50:33;;;;;;;0.20;0.20;;;7.20;99.90;;;;;;5044963;28;20247;-82
2020/12/28 09:52:59;;;;;;;0.10;0.10;;;7.20;99.90;;;;;;5052817;28;20210;-82
2020/12/28 09:55:24;;;;;;;0.77;0.17;;;7.20;99.90;;;;;;5053046;28;20214;-82
2020/12/28 09:57:50;;;;;;;0.10;0.10;;;7.20;99.90;;;;;;5051496;28;20188;-82
2020/12/28 10:00:16;;;;;;;1.03;0.20;;;7.10;99.90;;;;;;5049234;28;20197;-82
2020/12/28 10:02:42;;;;;;;1.37;1.30;;;7.00;99.90;;;;;;5040067;28;20267;-82
2020/12/28 10:05:09;;;;;;;0.10;0.10;;;6.90;99.90;;;;;;5045217;28;20186;-82
2020/12/28 10:07:37;;;;;;;0.03;0.03;;;7.00;99.90;;;;;;5037661;28;20332;-82
2020/12/28 10:10:07;;;;;;;0.10;0.10;;;7.10;99.90;;;;;;5047831;28;20190;-82
2020/12/28 10:12:34;;;;;;;0.20;0.20;;;7.00;99.90;;;;;;5062230;28;20243;-81
2020/12/28 10:15:00;;;;;;;0.07;0.07;;;7.10;99.90;;;;;;5051942;28;20238;-82
2020/12/28 10:17:25;;;;;;;0.10;0.10;;;7.10;99.90;;;;;;5055703;28;20192;-82
2020/12/28 10:19:51;;;;;;;0.70;0.20;;;7.00;99.90;;;;;;5057860;28;20227;-82
2020/12/28 10:22:17;;;;;;;0.17;0.17;;;7.00;99.90;;;;;;5054157;28;20202;-82
2020/12/28 10:24:42;;;;;;;0.30;0.30;;;7.10;99.90;;;;;;5051808;28;20222;-82
2020/12/28 10:27:08;;;;;;;0.77;0.10;;;7.00;99.90;;;;;;5059313;28;20528;-80
2020/12/28 10:29:33;;;;;;;0.13;0.13;;;7.10;99.90;;;;;;5059697;28;20205;-81
2020/12/28 10:31:59;;;;;;;0.20;0.20;;;7.00;99.90;;;;;;5066187;28;20210;-81
2020/12/28 10:34:25;;;;;;;0.20;0.20;;;7.20;99.90;;;;;;5054886;28;20194;-81
2020/12/28 10:36:52;;;;;;;0.73;0.20;;;7.20;99.90;;;;;;5053977;28;20189;-81
2020/12/28 10:39:18;;;;;;;0.37;0.10;;;7.40;99.90;;;;;;5080034;28;21398;-80
2020/12/28 10:41:44;;;;;;;0.30;0.20;;;7.40;99.90;;;;;;5057864;28;20209;-80
2020/12/28 10:44:10;;;;;;;0.03;0.03;;;7.40;99.90;;;;;;5055659;28;20194;-80
2020/12/28 10:46:37;;;;;;;0.10;0.10;;;7.30;99.90;;;;;;5064389;28;20220;-79
2020/12/28 10:49:04;;;;;;;0.10;0.10;;;7.10;99.90;;;;;;5060131;28;20205;-79
2020/12/28 10:51:31;;;;;;;0.10;0.10;;;7.30;99.90;;;;;;5058135;28;20210;-78
2020/12/28 10:53:56;;;;;;;0.10;0.10;;;7.30;99.90;;;;;;5047331;28;20182;-79
2020/12/28 10:56:28;;;;;;;0.23;0.23;;;7.40;99.90;;;;;;5048147;28;20182;-80
2020/12/28 10:58:55;;;;;;;0.17;0.17;;;7.20;99.90;;;;;;5044597;28;20185;-79
2020/12/28 11:01:22;;;;;;;0.20;0.13;;;7.30;99.90;;;;;;5039864;28;20221;-79
2020/12/28 11:03:49;;;;;;;0.10;0.10;;;7.10;99.90;;;;;;5059684;28;20224;-79
2020/12/28 11:06:15;;;;;;;0.10;0.10;;;6.90;99.90;;;;;;5052104;28;20239;-79
2020/12/28 11:08:40;;;;;;;0.10;0.10;;;6.60;99.90;;;;;;5053597;28;20186;-80
2020/12/28 11:11:08;;;;;;;0.10;0.10;;;6.90;99.90;;;;;;5045013;28;20210;-80
2020/12/28 11:13:33;;;;;;;0.00;0.00;;;6.90;99.90;;;;;;5056587;28;20589;-80
2020/12/28 11:15:59;;;;;;;0.20;0.20;;;6.90;99.90;;;;;;5050340;28;20182;-80
2020/12/28 11:18:24;;;;;;;0.10;0.10;;;6.80;99.90;;;;;;5052414;28;20754;-81
2020/12/28 11:20:50;;;;;;;0.30;0.30;;;6.70;99.90;;;;;;5054212;28;20186;-80
2020/12/28 11:23:16;;;;;;;0.30;0.30;;;6.80;99.90;;;;;;5048794;28;20281;-80
2020/12/28 11:25:41;;;;;;;0.03;0.03;;;6.90;99.90;;;;;;5052034;28;20194;-81
2020/12/28 11:28:07;;;;;;;0.10;0.10;;;7.10;99.90;;;;;;5066262;28;20564;-85
2020/12/28 11:30:32;;;;;;;0.20;0.10;;;7.10;99.90;;;;;;5048600;28;20194;-81
2020/12/28 11:32:58;;;;;;;0.10;0.10;;;7.00;99.90;;;;;;5056091;28;20310;-81
2020/12/28 11:35:24;;;;;;;0.10;0.10;;;7.00;99.90;;;;;;5052012;28;20196;-80
2020/12/28 11:37:49;;;;;;;0.10;0.10;;;7.20;99.90;;;;;;5054125;28;20239;-79
2020/12/28 11:40:16;;;;;;;0.20;0.20;;;7.10;99.90;;;;;;5050751;28;20726;-81
2020/12/28 11:42:41;;;;;;;0.17;0.17;;;6.90;99.90;;;;;;5052881;28;20719;-82
2020/12/28 11:45:08;;;;;;;0.37;0.37;;;6.90;99.90;;;;;;5059142;28;20228;-79
2020/12/28 11:47:35;;;;;;;0.10;0.10;;;6.90;99.90;;;;;;5061379;28;20189;-80
2020/12/28 11:50:01;;;;;;;0.10;0.10;;;6.80;99.90;;;;;;5049099;28;20194;-80
2020/12/28 11:52:26;;;;;;;0.10;0.10;;;6.60;99.90;;;;;;5049862;28;20285;-81
2020/12/28 11:54:52;;;;;;;0.20;0.20;;;6.80;99.90;;;;;;5051728;28;20677;-79
2020/12/28 11:57:17;;;;;;;0.10;0.10;;;7.00;99.90;;;;;;5045354;28;20186;-80
2020/12/28 11:59:43;;;;;;;0.10;0.10;;;6.90;99.90;;;;;;5041420;28;20192;-81
2020/12/28 12:02:08;;;;;;;0.10;0.10;;;7.00;99.90;;;;;;5044919;28;20267;-81
2020/12/28 12:04:52;;;;;;;0.87;0.30;;;7.00;99.90;;;;;;5053410;28;20216;-81
2020/12/28 12:07:22;;;;;;;0.10;0.10;;;6.90;99.90;;;;;;5059778;28;20622;-80
2020/12/28 12:09:48;;;;;;;0.10;0.10;;;6.70;99.90;;;;;;5046667;28;20185;-82
2020/12/28 12:12:14;;;;;;;0.20;0.20;;;6.80;99.90;;;;;;5045442;28;20216;-81
2020/12/28 12:14:40;;;;;;;0.10;0.10;;;6.80;99.90;;;;;;5044939;28;20190;-81
2020/12/28 12:17:06;;;;;;;0.10;0.10;;;6.90;99.90;;;;;;5044734;28;20288;-80
2020/12/28 12:19:31;;;;;;;0.13;0.13;;;6.80;99.90;;;;;;5051277;28;20190;-79
2020/12/28 12:21:57;;;;;;;0.10;0.10;;;6.90;99.90;;;;;;5041233;28;20210;-80
2020/12/28 12:24:23;;;;;;;0.10;0.10;;;7.00;99.90;;;;;;5046729;28;20186;-80
2020/12/28 12:26:49;;;;;;;3.00;0.20;;;7.10;99.90;;;;;;5054372;28;20190;-80
2020/12/28 12:29:14;;;;;;;0.83;0.20;;;7.10;99.90;;;;;;5042530;28;20315;-83
2020/12/28 12:31:40;;;;;;;0.10;0.10;;;7.00;99.90;;;;;;5052707;28;20289;-81
2020/12/28 12:34:06;;;;;;;0.10;0.10;;;7.10;99.90;;;;;;5049510;28;20612;-81
2020/12/28 12:36:31;;;;;;;0.17;0.17;;;7.00;99.90;;;;;;5049529;28;20174;-82
2020/12/28 12:38:57;;;;;;;0.20;0.20;;;6.90;99.90;;;;;;5050787;28;20189;-80
2020/12/28 12:41:23;;;;;;;0.23;0.23;;;6.90;99.90;;;;;;5056593;28;20205;-81
2020/12/28 12:43:49;;;;;;;0.10;0.10;;;7.00;99.90;;;;;;5051865;28;20264;-80
2020/12/28 12:46:15;;;;;;;0.23;0.23;;;7.10;99.90;;;;;;5049462;28;20182;-80
2020/12/28 12:48:41;;;;;;;0.10;0.10;;;7.20;99.90;;;;;;5043932;28;20189;-80
2020/12/28 12:51:08;;;;;;;0.57;0.10;;;7.20;99.90;;;;;;5047539;28;20247;-80
2020/12/28 12:53:34;;;;;;;3.50;0.40;;;7.20;99.90;;;;;;5051672;28;20241;-81
2020/12/28 12:56:00;;;;;;;0.07;0.07;;;7.30;99.90;;;;;;5043215;28;20209;-80